Julian Carroll Airport
KJKL : rendu visible

Aérodrome :











RETROUVEZ-NOUS SUR...

 
LOGIN :

S'inscrire | Disclaimer

   EN    FR    IT 

 









Légende :    VFR   VFR Marginal   IFR   IFR Intensif   IFR Très Intensif
Visi : 
Plafond : 
>= 8 km
>= 3000ft
5 à 8 km
1000 à 3000 ft
1500m à 5 km
500 à 1000 ft
800 à 1500m
200 à 500 ft
< 800m
< 200 ft
Symboles :   Orages  Brouillard  Fortes neiges  Fortes précipitations  Vent > 20 kt






- Altitude de l'aérodrome : 1381 ft


KJKL - Julian Carroll

DERNIER METAR :
  • 121853Z AUTO VRB05KT 1 1/2SM -SN BR SCT015 BKN022 OVC028 M05/M07 A3029 RMK AO2 VIS 1V4 SLP269 P0000 T10501072

METARs EXPIRÉS :
  • 121844Z AUTO 1 1/2SM -SN BR FEW012 BKN022 OVC028 M05/M07 A3028 RMK AO2 P0000 T10501067
  • 121753Z AUTO 31008KT 4SM -SN FEW016 OVC026 M05/M08 A3028 RMK AO2 SNB10 SLP268 P0000 60000 T10501078 11033 21050 51003
  • 121653Z AUTO VRB05KT 9SM OVC024 M04/M07 A3028 RMK AO2 SLP268 T10441072
  • 121553Z AUTO 31007KT 270V340 10SM BKN019 OVC025 M04/M07 A3027 RMK AO2 SNE28 SLP263 P0000 T10441072

TAF KJKL
Valide du 12 à 18h jusqu'au 13 à 18h UTC


121740Z 1218/1318 32008KT P6SM VCSH BKN018
FM122300 33006KT P6SM BKN040
FM130100 VRB04KT P6SM SCT040
FM130400 VRB03KT P6SM FEW150



MET'MAP, la Météo Aéronautique d'un coup d'oeil ! - Copyright ORBIFLY Décembre 2007 - Disclaimer

ORBIFLY MET'MAP TEAM :

Programmation & Développement : Alexandra Zaïnal
Conception & Développement : Baudouin d'Aumeries
Co-Programmation & Développement : Marc-Olivier Méhu
Soutien technique & logistique : Manuel Goepfert

Contact : metmap@orbifly.com




SOURCES & CREDITS :

   NOAA       Earth
Advisory